Time;durP1;ratioP1;P1;durP2;ratioP2;P2;SDS_P1;SDS_P2;PMS_P1;PMS_P2;Temp;Humidity;BMP_temperature;BMP_pressure;BME280_temperature;BME280_humidity;BME280_pressure;Samples;Min_cycle;Max_cycle;Signal;HPM_P1;HPM_P2
2022/12/19 00:01:01;;;;;;;1.38;0.75;;;;;;;;;;5071720;28;20104;-64
2022/12/19 00:03:30;;;;;;;3.75;1.08;;;;;;;;;;5020298;28;20060;-64
2022/12/19 00:06:02;;;;;;;3.50;1.20;;;;;;;;;;5053396;28;20048;-64
2022/12/19 00:08:32;;;;;;;3.85;1.25;;;;;;;;;;5069597;28;20056;-64
2022/12/19 00:11:03;;;;;;;3.63;1.20;;;;;;;;;;5069620;28;20060;-64
2022/12/19 00:13:34;;;;;;;3.05;1.10;;;;;;;;;;5069664;28;20060;-64
2022/12/19 00:16:22;;;;;;;4.47;1.17;;;;;;;;;;5069580;28;20057;-64
2022/12/19 00:18:53;;;;;;;3.58;1.45;;;;;;;;;;5069567;28;20385;-64
2022/12/19 00:21:29;;;;;;;5.30;1.58;;;;;;;;;;5069307;28;20053;-63
2022/12/19 00:24:07;;;;;;;2.38;1.23;;;;;;;;;;5069690;28;20056;-64
2022/12/19 00:26:49;;;;;;;4.10;1.25;;;;;;;;;;5072076;28;20052;-64
2022/12/19 00:29:19;;;;;;;10.23;1.40;;;;;;;;;;5039687;28;20056;-63
2022/12/19 00:31:51;;;;;;;3.08;1.30;;;;;;;;;;5056564;28;20049;-64
2022/12/19 00:34:21;;;;;;;2.72;1.05;;;;;;;;;;5072897;28;20052;-63
2022/12/19 00:36:53;;;;;;;6.25;1.30;;;;;;;;;;5073088;28;20053;-64
2022/12/19 00:39:22;;;;;;;2.53;1.15;;;;;;;;;;5073173;28;20052;-64
2022/12/19 00:42:14;;;;;;;4.88;1.20;;;;;;;;;;5033095;28;20053;-63
2022/12/19 00:44:44;;;;;;;6.22;1.20;;;;;;;;;;4967587;28;20064;-64
2022/12/19 00:47:14;;;;;;;5.65;1.20;;;;;;;;;;5033180;28;20421;-64
2022/12/19 00:49:43;;;;;;;2.17;1.10;;;;;;;;;;4983693;28;20058;-64
2022/12/19 00:52:14;;;;;;;2.90;1.00;;;;;;;;;;4983572;28;20057;-64
2022/12/19 00:54:44;;;;;;;4.70;1.17;;;;;;;;;;4983613;28;20053;-64
2022/12/19 00:57:14;;;;;;;4.90;1.48;;;;;;;;;;5032771;28;20404;-64
2022/12/19 00:59:44;;;;;;;3.90;1.33;;;;;;;;;;4993156;28;20046;-64
2022/12/19 01:02:15;;;;;;;6.30;1.77;;;;;;;;;;4993270;28;20057;-64
2022/12/19 01:04:45;;;;;;;2.90;1.23;;;;;;;;;;4960827;28;20529;-64
2022/12/19 01:07:14;;;;;;;6.07;1.20;;;;;;;;;;4993429;28;20433;-64
2022/12/19 01:09:44;;;;;;;3.08;1.17;;;;;;;;;;4992484;28;20514;-64
2022/12/19 01:15:05;;;;;;;4.13;1.58;;;;;;;;;;4973838;28;20522;-64
2022/12/19 01:17:35;;;;;;;9.43;1.63;;;;;;;;;;4915980;29;20408;-64
2022/12/19 01:20:15;;;;;;;4.55;1.38;;;;;;;;;;4916007;29;20074;-64
2022/12/19 01:22:58;;;;;;;3.78;1.20;;;;;;;;;;4906208;29;20055;-64
2022/12/19 01:25:28;;;;;;;5.05;1.30;;;;;;;;;;4935108;29;20527;-64
2022/12/19 01:27:59;;;;;;;8.15;1.25;;;;;;;;;;4937903;28;20043;-64
2022/12/19 01:30:32;;;;;;;4.75;1.05;;;;;;;;;;4954094;28;20526;-64
2022/12/19 01:33:05;;;;;;;4.75;1.20;;;;;;;;;;4934752;29;20059;-64
2022/12/19 01:35:36;;;;;;;3.90;1.13;;;;;;;;;;4953790;28;20047;-64
2022/12/19 01:38:06;;;;;;;4.30;1.13;;;;;;;;;;4953389;28;20055;-64
2022/12/19 01:40:36;;;;;;;7.85;1.30;;;;;;;;;;4954020;28;20062;-64
2022/12/19 01:43:13;;;;;;;4.75;1.10;;;;;;;;;;4934412;29;20078;-64
2022/12/19 01:45:44;;;;;;;2.03;0.85;;;;;;;;;;4934711;29;20062;-64
2022/12/19 01:48:30;;;;;;;9.27;1.10;;;;;;;;;;4934555;29;20431;-64
2022/12/19 01:51:06;;;;;;;2.53;0.80;;;;;;;;;;4936406;29;20070;-64
2022/12/19 01:53:42;;;;;;;3.10;0.77;;;;;;;;;;4968107;28;20055;-64
2022/12/19 01:56:22;;;;;;;3.08;1.48;;;;;;;;;;4990044;28;20390;-64
2022/12/19 01:58:55;;;;;;;1.65;0.85;;;;;;;;;;4953172;29;20070;-64
2022/12/19 02:01:39;;;;;;;4.82;0.80;;;;;;;;;;4953450;29;20062;-64
2022/12/19 02:04:25;;;;;;;3.50;0.90;;;;;;;;;;4914930;29;20044;-64
2022/12/19 02:07:04;;;;;;;2.80;0.80;;;;;;;;;;4914960;29;20063;-64
2022/12/19 02:09:49;;;;;;;1.00;0.70;;;;;;;;;;4877312;29;20053;-64
2022/12/19 02:12:36;;;;;;;1.92;0.82;;;;;;;;;;4900442;29;20052;-64
2022/12/19 02:15:09;;;;;;;3.75;1.13;;;;;;;;;;4868603;29;20421;-64
2022/12/19 02:18:00;;;;;;;2.35;0.70;;;;;;;;;;4930103;29;20052;-64
2022/12/19 02:20:41;;;;;;;6.28;0.93;;;;;;;;;;4903231;29;20174;-64
2022/12/19 02:23:44;;;;;;;2.42;0.70;;;;;;;;;;4914777;29;20052;-64
2022/12/19 02:26:33;;;;;;;3.95;0.70;;;;;;;;;;4880180;29;20057;-64
2022/12/19 02:29:48;;;;;;;4.30;0.90;;;;;;;;;;4933292;29;20048;-64
2022/12/19 02:32:29;;;;;;;8.02;1.00;;;;;;;;;;4933656;29;20059;-64
2022/12/19 02:35:12;;;;;;;5.63;0.90;;;;;;;;;;4927938;29;20059;-64
2022/12/19 02:38:17;;;;;;;4.15;0.70;;;;;;;;;;4864554;29;20048;-64
2022/12/19 02:41:29;;;;;;;3.15;0.98;;;;;;;;;;4933248;29;20059;-64
2022/12/19 02:44:02;;;;;;;4.60;1.00;;;;;;;;;;4832914;29;20560;-64
2022/12/19 02:46:32;;;;;;;4.90;1.02;;;;;;;;;;4821109;29;20077;-64
2022/12/19 02:49:02;;;;;;;2.28;0.88;;;;;;;;;;4820851;29;20058;-65
2022/12/19 02:51:32;;;;;;;3.10;0.85;;;;;;;;;;4839677;29;20075;-64
2022/12/19 02:54:02;;;;;;;3.65;1.05;;;;;;;;;;4836229;29;20058;-64
2022/12/19 02:56:58;;;;;;;1.77;0.90;;;;;;;;;;4839660;29;20057;-64
2022/12/19 02:59:40;;;;;;;2.25;0.93;;;;;;;;;;4821530;29;20058;-65
2022/12/19 03:02:48;;;;;;;3.75;1.05;;;;;;;;;;4857954;29;20064;-64
2022/12/19 03:05:52;;;;;;;4.50;1.15;;;;;;;;;;4858060;29;20061;-64
2022/12/19 03:08:32;;;;;;;1.92;1.10;;;;;;;;;;4857702;29;20049;-65
2022/12/19 03:11:09;;;;;;;3.50;1.20;;;;;;;;;;4857881;29;20045;-64
2022/12/19 03:14:00;;;;;;;6.32;1.00;;;;;;;;;;4856019;29;20066;-64
2022/12/19 03:16:33;;;;;;;2.08;0.80;;;;;;;;;;4821506;29;20443;-64
2022/12/19 03:19:03;;;;;;;;;;;;;;;;;;4841459;29;20066;-64
2022/12/19 03:21:40;;;;;;;1.60;0.80;;;;;;;;;;4876532;29;20324;-64
2022/12/19 03:24:12;;;;;;;4.85;1.05;;;;;;;;;;4876307;29;20048;-64
2022/12/19 03:26:54;;;;;;;4.55;0.95;;;;;;;;;;4845335;29;20553;-64
2022/12/19 03:30:07;;;;;;;5.97;0.60;;;;;;;;;;4887060;29;20071;-64
2022/12/19 03:32:41;;;;;;;3.70;1.00;;;;;;;;;;4909659;29;20056;-64
2022/12/19 03:35:15;;;;;;;2.67;0.93;;;;;;;;;;4913647;29;20428;-64
2022/12/19 03:37:49;;;;;;;6.93;1.40;;;;;;;;;;4883450;29;20398;-64
2022/12/19 03:40:23;;;;;;;2.85;0.80;;;;;;;;;;4879426;29;20064;-64
2022/12/19 03:43:07;;;;;;;1.65;0.98;;;;;;;;;;4908927;29;20052;-64
2022/12/19 03:46:00;;;;;;;3.05;0.80;;;;;;;;;;4929339;29;20060;-64
2022/12/19 03:48:56;;;;;;;2.75;0.80;;;;;;;;;;4932762;29;20504;-64
2022/12/19 03:51:33;;;;;;;5.43;1.05;;;;;;;;;;4910321;29;20076;-64
2022/12/19 03:54:30;;;;;;;3.30;0.90;;;;;;;;;;4879259;29;20568;-64
2022/12/19 03:57:09;;;;;;;4.50;1.00;;;;;;;;;;4875801;29;20053;-64
2022/12/19 03:59:50;;;;;;;4.05;1.23;;;;;;;;;;4876839;29;20061;-64
2022/12/19 04:02:22;;;;;;;3.38;1.10;;;;;;;;;;4848968;29;20053;-64
2022/12/19 04:05:00;;;;;;;4.65;0.93;;;;;;;;;;4879722;29;20105;-64
2022/12/19 04:07:31;;;;;;;2.28;0.90;;;;;;;;;;4914523;29;20056;-64
2022/12/19 04:10:03;;;;;;;4.00;1.10;;;;;;;;;;4885931;29;20071;-64
2022/12/19 04:12:41;;;;;;;2.42;0.75;;;;;;;;;;4933113;29;20052;-64
2022/12/19 04:15:11;;;;;;;3.72;1.05;;;;;;;;;;4935756;29;20063;-64
2022/12/19 04:17:52;;;;;;;3.67;1.10;;;;;;;;;;4936402;29;20636;-64
2022/12/19 04:20:25;;;;;;;3.67;0.93;;;;;;;;;;4944551;29;20507;-64
2022/12/19 04:23:14;;;;;;;2.80;1.30;;;;;;;;;;4939173;29;20415;-64
2022/12/19 04:25:51;;;;;;;5.43;1.08;;;;;;;;;;4935979;29;20059;-64
2022/12/19 04:28:55;;;;;;;2.03;1.02;;;;;;;;;;4963866;28;20506;-64
2022/12/19 04:31:25;;;;;;;5.50;1.48;;;;;;;;;;4974665;28;20411;-64
2022/12/19 04:33:54;;;;;;;3.88;0.98;;;;;;;;;;4958467;28;20063;-64
2022/12/19 04:36:25;;;;;;;6.95;0.80;;;;;;;;;;4974270;28;20054;-64
2022/12/19 04:38:54;;;;;;;3.58;0.80;;;;;;;;;;4974100;28;20487;-64
2022/12/19 04:41:24;;;;;;;2.95;0.85;;;;;;;;;;4974317;28;20423;-64
2022/12/19 04:43:54;;;;;;;5.97;0.98;;;;;;;;;;4957947;28;20057;-63
2022/12/19 04:46:24;;;;;;;3.78;1.00;;;;;;;;;;4984591;28;20782;-64
2022/12/19 04:48:54;;;;;;;1.50;0.88;;;;;;;;;;4993577;28;20105;-64
2022/12/19 04:51:23;;;;;;;5.80;1.00;;;;;;;;;;4993827;28;20069;-64
2022/12/19 04:53:53;;;;;;;5.97;1.33;;;;;;;;;;4960878;28;20061;-64
2022/12/19 04:56:23;;;;;;;4.32;1.00;;;;;;;;;;4993634;28;20069;-64
2022/12/19 04:58:58;;;;;;;5.70;1.30;;;;;;;;;;4993382;28;20482;-64
2022/12/19 05:01:28;;;;;;;1.90;0.90;;;;;;;;;;4993411;28;20067;-64
2022/12/19 05:03:57;;;;;;;11.95;1.10;;;;;;;;;;4976613;28;20061;-64
2022/12/19 05:06:32;;;;;;;6.95;1.52;;;;;;;;;;4993498;28;20050;-64
2022/12/19 05:09:02;;;;;;;5.80;1.40;;;;;;;;;;5030687;28;20064;-64
2022/12/19 05:11:32;;;;;;;5.22;0.98;;;;;;;;;;5031585;28;20045;-63
2022/12/19 05:14:02;;;;;;;2.38;1.05;;;;;;;;;;5035757;28;20060;-63
2022/12/19 05:16:31;;;;;;;2.95;1.10;;;;;;;;;;5052447;28;20053;-63
2022/12/19 05:19:01;;;;;;;11.73;1.48;;;;;;;;;;4986547;28;20064;-63
2022/12/19 05:21:31;;;;;;;7.63;1.55;;;;;;;;;;5052486;28;20049;-64
2022/12/19 05:24:01;;;;;;;1.77;0.88;;;;;;;;;;5036118;28;20057;-63
2022/12/19 05:26:31;;;;;;;10.82;2.00;;;;;;;;;;5052117;28;20067;-63
2022/12/19 05:29:01;;;;;;;2.88;0.90;;;;;;;;;;5015396;28;20065;-64
2022/12/19 05:31:30;;;;;;;4.40;1.00;;;;;;;;;;4999288;28;20057;-63
2022/12/19 05:34:00;;;;;;;5.95;1.45;;;;;;;;;;5031976;28;20517;-64
2022/12/19 05:36:30;;;;;;;3.28;1.10;;;;;;;;;;5031916;28;20072;-64
2022/12/19 05:39:00;;;;;;;4.70;1.10;;;;;;;;;;4992525;28;20050;-63
2022/12/19 05:41:29;;;;;;;8.23;1.25;;;;;;;;;;4992385;28;20426;-63
2022/12/19 05:43:59;;;;;;;5.53;1.13;;;;;;;;;;4992207;28;20050;-63
2022/12/19 05:46:29;;;;;;;4.53;1.40;;;;;;;;;;4992689;28;20069;-63
2022/12/19 05:48:58;;;;;;;4.40;1.10;;;;;;;;;;4971471;28;20556;-63
2022/12/19 05:51:28;;;;;;;3.17;1.17;;;;;;;;;;5032000;28;20063;-63
2022/12/19 05:54:00;;;;;;;5.10;1.23;;;;;;;;;;5031994;28;20065;-64
2022/12/19 05:56:30;;;;;;;5.20;1.50;;;;;;;;;;4966457;28;20568;-64
2022/12/19 05:58:59;;;;;;;3.75;1.30;;;;;;;;;;5031768;28;20049;-64
2022/12/19 06:01:29;;;;;;;3.53;1.23;;;;;;;;;;5031212;28;20053;-64
2022/12/19 06:03:59;;;;;;;6.15;1.20;;;;;;;;;;4979760;28;20046;-64
2022/12/19 06:06:28;;;;;;;6.57;1.30;;;;;;;;;;4978953;28;20057;-64
2022/12/19 06:08:59;;;;;;;5.13;1.40;;;;;;;;;;5011985;28;20054;-64
2022/12/19 06:11:28;;;;;;;3.38;1.10;;;;;;;;;;4979146;28;20058;-64
2022/12/19 06:13:58;;;;;;;4.78;1.20;;;;;;;;;;5011607;28;20061;-63
2022/12/19 06:16:28;;;;;;;3.85;1.20;;;;;;;;;;5028963;28;20079;-63
2022/12/19 06:18:57;;;;;;;4.57;1.23;;;;;;;;;;5051377;28;20072;-63
2022/12/19 06:21:27;;;;;;;6.32;1.30;;;;;;;;;;4986311;28;20054;-64
2022/12/19 06:23:57;;;;;;;10.85;1.38;;;;;;;;;;4992011;28;20065;-64
2022/12/19 06:26:26;;;;;;;1.83;1.08;;;;;;;;;;4958526;28;20058;-64
2022/12/19 06:28:57;;;;;;;10.30;1.42;;;;;;;;;;4992009;28;20058;-64
2022/12/19 06:31:27;;;;;;;5.07;1.15;;;;;;;;;;4991714;28;20042;-64
2022/12/19 06:33:56;;;;;;;6.07;1.30;;;;;;;;;;4991711;28;20054;-64
2022/12/19 06:36:29;;;;;;;5.05;1.13;;;;;;;;;;4978894;28;20520;-64
2022/12/19 06:38:59;;;;;;;5.03;1.10;;;;;;;;;;4987824;28;20054;-64
2022/12/19 06:44:17;;;;;;;2.45;0.93;;;;;;;;;;5030772;28;20057;-64
2022/12/19 06:46:47;;;;;;;2.67;1.10;;;;;;;;;;5011040;28;20502;-64
2022/12/19 06:49:16;;;;;;;2.88;1.08;;;;;;;;;;4978283;28;20081;-64
2022/12/19 06:51:46;;;;;;;5.70;1.20;;;;;;;;;;5011009;28;20457;-64
2022/12/19 06:54:16;;;;;;;4.38;1.27;;;;;;;;;;4994525;28;20501;-64
2022/12/19 06:56:45;;;;;;;3.15;1.23;;;;;;;;;;5010720;28;20057;-64
2022/12/19 06:59:16;;;;;;;4.35;1.30;;;;;;;;;;5033479;28;20060;-64
2022/12/19 07:02:06;;;;;;;3.97;1.00;;;;;;;;;;5017158;28;20052;-64
2022/12/19 07:04:40;;;;;;;4.35;1.13;;;;;;;;;;5050469;28;20185;-64
2022/12/19 07:07:10;;;;;;;4.00;1.30;;;;;;;;;;5050520;28;20197;-64
2022/12/19 07:09:40;;;;;;;3.35;1.23;;;;;;;;;;5017336;28;20064;-64
2022/12/19 07:12:10;;;;;;;3.55;1.23;;;;;;;;;;5065130;28;20060;-64
2022/12/19 07:14:39;;;;;;;5.13;1.30;;;;;;;;;;5070279;28;20448;-65
2022/12/19 07:17:09;;;;;;;6.72;1.42;;;;;;;;;;5070645;28;20071;-64
2022/12/19 07:19:39;;;;;;;5.68;0.90;;;;;;;;;;5072513;28;20480;-64
2022/12/19 07:22:09;;;;;;;1.92;1.08;;;;;;;;;;5070361;28;20071;-64
2022/12/19 07:24:39;;;;;;;3.45;1.23;;;;;;;;;;5053800;28;20107;-64
2022/12/19 07:27:09;;;;;;;3.97;1.20;;;;;;;;;;5070135;28;20064;-64
2022/12/19 07:29:38;;;;;;;5.93;1.17;;;;;;;;;;5053739;28;20056;-64
2022/12/19 07:32:08;;;;;;;8.68;1.45;;;;;;;;;;5072395;28;20049;-64
2022/12/19 07:34:37;;;;;;;5.15;1.00;;;;;;;;;;5069966;28;20052;-64
2022/12/19 07:37:07;;;;;;;8.85;1.40;;;;;;;;;;5072176;28;20045;-64
2022/12/19 07:39:37;;;;;;;3.05;0.90;;;;;;;;;;5070442;28;20484;-64
2022/12/19 07:42:06;;;;;;;3.22;1.52;;;;;;;;;;5070453;28;20064;-64
2022/12/19 07:44:38;;;;;;;3.85;0.80;;;;;;;;;;5069752;28;20049;-64
2022/12/19 07:47:09;;;;;;;3.35;1.15;;;;;;;;;;5069936;28;20547;-64
2022/12/19 07:49:38;;;;;;;3.08;1.10;;;;;;;;;;5053138;28;20059;-64
2022/12/19 07:52:08;;;;;;;2.10;0.90;;;;;;;;;;5052999;28;20064;-64
2022/12/19 07:54:38;;;;;;;3.85;0.95;;;;;;;;;;5053071;28;20056;-64
2022/12/19 07:57:07;;;;;;;2.70;0.90;;;;;;;;;;5053165;28;20056;-63
2022/12/19 07:59:37;;;;;;;4.22;1.17;;;;;;;;;;5069843;28;20056;-64
2022/12/19 08:02:07;;;;;;;2.25;1.08;;;;;;;;;;5069718;28;20060;-63
2022/12/19 08:04:38;;;;;;;3.30;1.17;;;;;;;;;;5069951;28;20052;-63
2022/12/19 08:07:07;;;;;;;3.75;1.20;;;;;;;;;;5069578;28;20049;-63
2022/12/19 08:09:37;;;;;;;2.00;0.80;;;;;;;;;;5069954;28;20061;-64
2022/12/19 08:12:06;;;;;;;6.43;1.60;;;;;;;;;;5069801;28;20057;-64
2022/12/19 08:14:36;;;;;;;4.13;0.90;;;;;;;;;;5069739;28;20045;-64
2022/12/19 08:17:06;;;;;;;8.68;1.08;;;;;;;;;;5069590;28;20057;-63
2022/12/19 08:19:48;;;;;;;1.90;0.75;;;;;;;;;;5055138;28;20049;-63
2022/12/19 08:22:18;;;;;;;4.07;1.20;;;;;;;;;;5070948;28;20401;-64
2022/12/19 08:24:48;;;;;;;2.17;0.80;;;;;;;;;;5071774;28;20488;-63
2022/12/19 08:27:17;;;;;;;1.40;0.80;;;;;;;;;;5052016;28;20045;-63
2022/12/19 08:29:48;;;;;;;2.70;1.05;;;;;;;;;;5053431;28;20053;-63
2022/12/19 08:32:18;;;;;;;4.18;1.10;;;;;;;;;;5069417;28;20057;-63
2022/12/19 08:34:51;;;;;;;10.32;1.60;;;;;;;;;;5049348;28;20049;-63
2022/12/19 08:37:21;;;;;;;6.88;1.30;;;;;;;;;;5016896;28;20440;-64
2022/12/19 08:39:50;;;;;;;3.67;0.95;;;;;;;;;;5049452;28;20061;-63
2022/12/19 08:42:21;;;;;;;2.20;1.15;;;;;;;;;;5029263;28;20073;-64
2022/12/19 08:44:50;;;;;;;4.15;1.08;;;;;;;;;;4996641;28;20057;-63
2022/12/19 08:47:20;;;;;;;4.55;1.10;;;;;;;;;;5031296;28;20061;-64
2022/12/19 08:49:50;;;;;;;1.90;0.90;;;;;;;;;;5033040;28;20049;-65
2022/12/19 08:52:19;;;;;;;3.20;1.40;;;;;;;;;;5033033;28;20444;-63
2022/12/19 08:54:49;;;;;;;1.77;0.90;;;;;;;;;;5032917;28;20061;-63
2022/12/19 08:57:19;;;;;;;3.28;1.08;;;;;;;;;;5000136;28;20068;-63
2022/12/19 08:59:49;;;;;;;6.18;1.40;;;;;;;;;;5032662;28;20065;-64
2022/12/19 09:02:19;;;;;;;6.65;0.90;;;;;;;;;;5032833;28;20053;-64
2022/12/19 09:04:49;;;;;;;3.97;1.05;;;;;;;;;;5033578;28;20136;-64
2022/12/19 09:07:39;;;;;;;4.30;0.95;;;;;;;;;;5072708;28;20432;-64
2022/12/19 09:10:09;;;;;;;1.88;0.90;;;;;;;;;;5072700;28;20480;-64
2022/12/19 09:12:39;;;;;;;2.00;0.90;;;;;;;;;;5072621;28;20057;-63
2022/12/19 09:15:09;;;;;;;3.35;1.10;;;;;;;;;;5072618;28;20048;-63
2022/12/19 09:17:38;;;;;;;2.25;0.90;;;;;;;;;;5055681;28;20048;-63
2022/12/19 09:20:09;;;;;;;11.10;1.40;;;;;;;;;;5064126;28;20060;-63
2022/12/19 09:22:39;;;;;;;3.10;0.90;;;;;;;;;;5074887;28;20048;-63
2022/12/19 09:25:09;;;;;;;5.75;1.00;;;;;;;;;;5074484;28;20049;-63
2022/12/19 09:27:40;;;;;;;3.70;1.30;;;;;;;;;;5071950;28;20071;-64
2022/12/19 09:30:30;;;;;;;11.18;1.13;;;;;;;;;;5072406;28;20061;-63
2022/12/19 09:33:02;;;;;;;6.15;1.10;;;;;;;;;;5018939;28;20449;-64
2022/12/19 09:35:32;;;;;;;8.52;1.35;;;;;;;;;;5051794;28;20064;-64
2022/12/19 09:38:02;;;;;;;6.63;1.10;;;;;;;;;;5051896;28;20057;-64
2022/12/19 09:41:02;;;;;;;3.72;1.13;;;;;;;;;;5003426;28;20072;-64
2022/12/19 09:43:59;;;;;;;8.00;1.50;;;;;;;;;;4992636;28;20062;-64
2022/12/19 09:46:49;;;;;;;7.30;1.20;;;;;;;;;;4944680;28;20050;-64
2022/12/19 09:49:25;;;;;;;6.95;1.10;;;;;;;;;;4960312;28;20058;-64
2022/12/19 09:52:04;;;;;;;4.55;1.00;;;;;;;;;;4944255;28;20160;-65
2022/12/19 09:54:39;;;;;;;3.97;1.92;;;;;;;;;;4992439;28;20065;-64
2022/12/19 09:57:28;;;;;;;5.07;1.20;;;;;;;;;;4944005;28;20517;-64
2022/12/19 10:00:05;;;;;;;3.38;1.20;;;;;;;;;;4992343;28;20421;-65
2022/12/19 10:02:49;;;;;;;2.78;1.27;;;;;;;;;;4992609;28;20058;-64
2022/12/19 10:05:45;;;;;;;3.65;1.05;;;;;;;;;;4992285;28;20087;-64
2022/12/19 10:08:37;;;;;;;2.95;1.10;;;;;;;;;;4992197;28;20050;-65
2022/12/19 10:11:54;;;;;;;4.70;1.20;;;;;;;;;;5026092;28;20053;-64
2022/12/19 10:14:46;;;;;;;;;;;;;;;;;;5032044;28;20053;-64
2022/12/19 10:17:52;;;;;;;3.80;1.27;;;;;;;;;;5031600;28;20392;-64
2022/12/19 10:20:29;;;;;;;1.70;1.00;;;;;;;;;;5016295;28;20067;-65
2022/12/19 10:23:17;;;;;;;6.57;1.50;;;;;;;;;;5073463;28;20489;-65
2022/12/19 10:26:13;;;;;;;6.30;3.08;;;;;;;;;;5087903;28;20052;-65
2022/12/19 10:28:56;;;;;;;9.57;5.95;;;;;;;;;;5071010;28;20500;-65
2022/12/19 10:31:37;;;;;;;8.13;3.42;;;;;;;;;;5073196;28;20043;-65
2022/12/19 10:34:23;;;;;;;4.88;2.13;;;;;;;;;;5072985;28;20041;-65
2022/12/19 10:36:59;;;;;;;4.35;1.70;;;;;;;;;;5054279;28;20507;-65
2022/12/19 10:39:55;;;;;;;2.00;1.02;;;;;;;;;;5073438;28;20048;-65
2022/12/19 10:42:40;;;;;;;4.18;1.50;;;;;;;;;;5072881;28;20507;-65
2022/12/19 10:45:21;;;;;;;2.88;1.30;;;;;;;;;;5070998;28;20064;-65
2022/12/19 10:47:55;;;;;;;5.88;1.67;;;;;;;;;;5070642;28;20057;-66
2022/12/19 10:50:29;;;;;;;4.20;1.73;;;;;;;;;;5054379;28;20056;-65
2022/12/19 10:53:07;;;;;;;8.30;1.52;;;;;;;;;;5070499;28;20060;-65
2022/12/19 10:55:48;;;;;;;8.10;1.48;;;;;;;;;;5070347;28;20076;-65
2022/12/19 10:58:31;;;;;;;3.33;1.85;;;;;;;;;;5070602;28;20045;-66
2022/12/19 11:01:05;;;;;;;4.05;1.42;;;;;;;;;;5070326;28;20052;-66
2022/12/19 11:03:35;;;;;;;2.33;1.17;;;;;;;;;;5037438;28;20060;-66
2022/12/19 11:06:26;;;;;;;;;;;;;;;;;;5020924;28;20041;-65
2022/12/19 11:09:18;;;;;;;5.25;1.42;;;;;;;;;;5049301;28;19921;-66
2022/12/19 11:11:56;;;;;;;4.07;1.17;;;;;;;;;;5033538;28;20049;-66
2022/12/19 11:15:13;;;;;;;4.35;1.45;;;;;;;;;;5049905;28;20072;-66
2022/12/19 11:18:10;;;;;;;3.08;1.20;;;;;;;;;;5050161;28;20053;-65
2022/12/19 11:21:06;;;;;;;5.13;0.90;;;;;;;;;;5050277;28;20049;-66
2022/12/19 11:24:17;;;;;;;2.28;0.80;;;;;;;;;;5020034;28;20059;-66
2022/12/19 11:27:25;;;;;;;;;;;;;;;;;;5050342;28;20516;-66
2022/12/19 11:30:15;;;;;;;2.47;0.70;;;;;;;;;;5050177;28;19928;-66
2022/12/19 11:33:15;;;;;;;2.45;1.02;;;;;;;;;;5049770;28;20072;-66
2022/12/19 11:35:50;;;;;;;2.45;0.90;;;;;;;;;;5029885;28;20065;-65
2022/12/19 11:38:31;;;;;;;2.15;0.82;;;;;;;;;;4932978;28;20156;-65
2022/12/19 11:41:12;;;;;;;1.50;0.90;;;;;;;;;;5029833;28;20061;-66
2022/12/19 11:44:06;;;;;;;1.42;0.70;;;;;;;;;;5029967;28;20049;-65
2022/12/19 11:46:44;;;;;;;1.70;0.80;;;;;;;;;;5051104;28;20508;-65
2022/12/19 11:49:36;;;;;;;2.50;0.90;;;;;;;;;;5036328;28;20075;-66
2022/12/19 11:52:41;;;;;;;5.20;0.95;;;;;;;;;;5069947;28;20051;-66
2022/12/19 11:55:56;;;;;;;6.47;1.25;;;;;;;;;;5069772;28;20550;-65
2022/12/19 11:58:28;;;;;;;4.40;0.82;;;;;;;;;;5070014;28;20052;-66
2022/12/19 12:01:34;;;;;;;2.83;0.80;;;;;;;;;;5036477;28;20049;-66
2022/12/19 12:04:38;;;;;;;6.32;0.93;;;;;;;;;;5052949;28;20056;-66
2022/12/19 12:07:09;;;;;;;3.40;0.90;;;;;;;;;;5061514;28;20056;-66
2022/12/19 12:09:59;;;;;;;6.90;1.58;;;;;;;;;;5071804;28;20504;-66
2022/12/19 12:12:53;;;;;;;7.80;1.42;;;;;;;;;;5071727;28;20480;-66
2022/12/19 12:16:06;;;;;;;3.10;1.00;;;;;;;;;;5072222;28;20488;-66
2022/12/19 12:19:17;;;;;;;2.90;1.17;;;;;;;;;;5072133;28;20052;-66
2022/12/19 12:22:26;;;;;;;2.28;0.88;;;;;;;;;;5075274;28;20738;-66
2022/12/19 12:25:29;;;;;;;2.42;1.50;;;;;;;;;;5075562;28;20032;-65
2022/12/19 12:28:48;;;;;;;4.32;1.52;;;;;;;;;;5075457;28;20531;-66
2022/12/19 12:31:43;;;;;;;5.43;1.27;;;;;;;;;;5073157;28;20619;-65
2022/12/19 12:34:52;;;;;;;2.35;0.80;;;;;;;;;;5073315;28;20068;-66
2022/12/19 12:38:07;;;;;;;1.50;0.80;;;;;;;;;;5073296;28;20055;-66
2022/12/19 12:41:18;;;;;;;12.57;1.77;;;;;;;;;;5039988;28;20491;-67
2022/12/19 12:44:07;;;;;;;3.00;1.60;;;;;;;;;;5039547;28;20484;-66
2022/12/19 12:47:08;;;;;;;4.00;1.70;;;;;;;;;;5032855;28;20445;-67
2022/12/19 12:49:40;;;;;;;2.10;1.10;;;;;;;;;;5033043;28;20054;-67
2022/12/19 12:52:19;;;;;;;3.13;1.00;;;;;;;;;;5032930;28;20051;-67
2022/12/19 12:54:49;;;;;;;8.95;4.40;;;;;;;;;;5033465;28;20149;-66
2022/12/19 12:57:29;;;;;;;3.80;1.63;;;;;;;;;;5013029;28;20498;-67
2022/12/19 13:00:29;;;;;;;6.07;1.13;;;;;;;;;;5013007;28;20052;-66
2022/12/19 13:03:03;;;;;;;20.77;5.43;;;;;;;;;;4994629;28;20045;-67
2022/12/19 13:05:53;;;;;;;5.82;1.58;;;;;;;;;;5032663;28;20058;-66
2022/12/19 13:08:35;;;;;;;1.95;1.00;;;;;;;;;;5032408;28;20061;-66
2022/12/19 13:14:35;;;;;;;9.90;4.25;;;;;;;;;;4980098;28;20050;-66
2022/12/19 13:17:28;;;;;;;4.18;1.63;;;;;;;;;;5008652;28;20426;-66
2022/12/19 13:20:05;;;;;;;5.47;1.05;;;;;;;;;;4959171;28;20050;-66
2022/12/19 13:22:39;;;;;;;1.67;1.30;;;;;;;;;;4976742;28;20062;-67
2022/12/19 13:25:33;;;;;;;1.42;0.82;;;;;;;;;;4993130;28;20058;-67
2022/12/19 13:28:03;;;;;;;3.35;1.13;;;;;;;;;;4993068;28;20059;-66
2022/12/19 13:30:34;;;;;;;1.65;1.05;;;;;;;;;;4979779;28;20070;-68
2022/12/19 13:33:24;;;;;;;2.53;1.10;;;;;;;;;;5011713;28;20065;-67
2022/12/19 13:35:53;;;;;;;3.20;1.10;;;;;;;;;;4928922;28;20043;-68
2022/12/19 13:38:49;;;;;;;2.75;0.82;;;;;;;;;;4973417;28;20050;-66
2022/12/19 13:44:38;;;;;;;2.50;1.20;;;;;;;;;;4973565;28;20066;-67
2022/12/19 13:47:12;;;;;;;3.75;1.42;;;;;;;;;;4973027;28;20054;-66
2022/12/19 13:49:51;;;;;;;3.08;1.10;;;;;;;;;;4973193;28;20057;-66
2022/12/19 13:52:21;;;;;;;4.43;1.20;;;;;;;;;;5032163;28;20412;-67
2022/12/19 13:54:56;;;;;;;2.83;1.20;;;;;;;;;;5052291;28;20439;-67
2022/12/19 13:57:29;;;;;;;2.80;1.25;;;;;;;;;;5051707;28;20060;-67
2022/12/19 14:00:07;;;;;;;4.85;1.00;;;;;;;;;;5051957;28;20049;-66
2022/12/19 14:02:40;;;;;;;;;;;;;;;;;;5067652;28;20092;-66
2022/12/19 14:05:25;;;;;;;9.95;1.30;;;;;;;;;;5051653;28;20470;-67
2022/12/19 14:08:20;;;;;;;3.00;1.10;;;;;;;;;;5051594;28;20045;-66
2022/12/19 14:10:52;;;;;;;11.02;1.95;;;;;;;;;;5051367;28;20053;-67
2022/12/19 14:16:50;;;;;;;1.98;0.98;;;;;;;;;;5051552;28;20061;-66
2022/12/19 14:19:26;;;;;;;2.63;1.20;;;;;;;;;;5034940;28;20100;-67
2022/12/19 14:22:10;;;;;;;3.97;1.20;;;;;;;;;;5051704;28;20052;-67
2022/12/19 14:25:02;;;;;;;4.85;1.10;;;;;;;;;;5051271;28;20060;-67
2022/12/19 14:28:11;;;;;;;1.42;0.95;;;;;;;;;;5051076;28;20064;-66
2022/12/19 14:31:04;;;;;;;1.60;1.00;;;;;;;;;;5051066;28;20158;-66
2022/12/19 14:33:39;;;;;;;3.47;1.23;;;;;;;;;;5060992;28;20053;-66
2022/12/19 14:36:32;;;;;;;3.38;1.30;;;;;;;;;;5050146;28;20511;-66
2022/12/19 14:39:01;;;;;;;;;;;;;;;;;;5071803;28;20408;-67
2022/12/19 14:45:31;;;;;;;1.30;0.90;;;;;;;;;;5072447;28;20041;-67
2022/12/19 14:48:35;;;;;;;3.22;1.10;;;;;;;;;;5072760;28;20500;-67
2022/12/19 14:51:35;;;;;;;1.83;1.00;;;;;;;;;;5070749;28;20059;-67
2022/12/19 14:54:25;;;;;;;2.97;1.00;;;;;;;;;;5087700;28;20075;-67
2022/12/19 14:57:22;;;;;;;1.45;0.90;;;;;;;;;;5073060;28;20036;-66
2022/12/19 15:00:27;;;;;;;2.13;0.80;;;;;;;;;;5073000;28;20048;-67
2022/12/19 15:03:24;;;;;;;3.80;1.20;;;;;;;;;;5072623;28;20036;-66
2022/12/19 15:06:30;;;;;;;3.22;1.02;;;;;;;;;;5054122;28;20052;-67
2022/12/19 15:09:20;;;;;;;3.22;1.00;;;;;;;;;;5030494;28;20061;-66
2022/12/19 15:16:01;;;;;;;3.80;1.00;;;;;;;;;;5030314;28;20135;-66
2022/12/19 15:18:31;;;;;;;2.00;1.00;;;;;;;;;;4990927;28;20502;-66
2022/12/19 15:21:03;;;;;;;2.17;1.08;;;;;;;;;;4942453;28;20057;-66
2022/12/19 15:23:34;;;;;;;5.40;1.27;;;;;;;;;;4990912;28;20545;-65
2022/12/19 15:26:10;;;;;;;2.08;1.00;;;;;;;;;;4990628;28;20061;-66
2022/12/19 15:28:50;;;;;;;2.22;0.93;;;;;;;;;;4990884;28;20061;-66
2022/12/19 15:31:28;;;;;;;1.75;0.80;;;;;;;;;;4990933;28;20060;-66
2022/12/19 15:34:00;;;;;;;1.45;0.90;;;;;;;;;;4990857;28;20062;-65
2022/12/19 15:36:53;;;;;;;4.07;1.00;;;;;;;;;;4974473;28;20497;-66
2022/12/19 15:39:25;;;;;;;7.50;1.30;;;;;;;;;;4990740;28;20449;-66
2022/12/19 15:41:58;;;;;;;1.92;0.90;;;;;;;;;;4974795;28;20062;-66
2022/12/19 15:44:37;;;;;;;4.68;1.48;;;;;;;;;;4966487;28;20521;-66
2022/12/19 15:47:25;;;;;;;2.75;1.30;;;;;;;;;;5010453;28;20046;-66
2022/12/19 15:49:56;;;;;;;1.83;1.13;;;;;;;;;;5010296;28;20063;-65
2022/12/19 15:52:27;;;;;;;2.63;1.10;;;;;;;;;;5010495;28;20042;-66
2022/12/19 15:54:57;;;;;;;2.10;1.10;;;;;;;;;;4981355;28;20057;-66
2022/12/19 15:57:38;;;;;;;4.88;0.90;;;;;;;;;;5074141;28;20496;-66
2022/12/19 16:00:23;;;;;;;1.40;0.80;;;;;;;;;;5076198;28;20049;-67
2022/12/19 16:02:54;;;;;;;1.50;0.93;;;;;;;;;;5074329;28;20064;-66
2022/12/19 16:05:44;;;;;;;2.85;0.90;;;;;;;;;;5073985;28;20053;-66
2022/12/19 16:08:17;;;;;;;4.60;1.05;;;;;;;;;;5074932;28;20044;-66
2022/12/19 16:10:54;;;;;;;3.85;1.00;;;;;;;;;;5073355;28;20056;-66
2022/12/19 16:13:35;;;;;;;3.20;0.90;;;;;;;;;;5055706;28;20060;-66
2022/12/19 16:16:05;;;;;;;11.40;1.10;;;;;;;;;;5040426;28;20064;-67